sensor_id;sensor_type;location;lat;lon;timestamp;P1;durP1;ratioP1;P2;durP2;ratioP2
12163;SDS011;6145;50.192;10.064;2023-08-24T11:37:33;3.17;;;2.88;;
12163;SDS011;6145;50.192;10.064;2023-08-24T11:40:04;3.17;;;2.88;;
12163;SDS011;6145;50.192;10.064;2023-08-24T11:42:47;4.65;;;3.28;;
12163;SDS011;6145;50.192;10.064;2023-08-24T11:45:29;3.95;;;3.08;;
12163;SDS011;6145;50.192;10.064;2023-08-24T12:06:10;3.70;;;2.78;;
12163;SDS011;6145;50.192;10.064;2023-08-24T12:07:59;4.18;;;2.83;;
12163;SDS011;6145;50.192;10.064;2023-08-24T12:10:35;4.18;;;2.90;;
12163;SDS011;6145;50.192;10.064;2023-08-24T12:16:26;5.53;;;2.97;;
12163;SDS011;6145;50.192;10.064;2023-08-24T15:12:07;3.80;;;3.50;;
12163;SDS011;6145;50.192;10.064;2023-08-24T15:14:37;4.65;;;3.42;;
12163;SDS011;6145;50.192;10.064;2023-08-24T15:17:29;3.70;;;3.13;;
12163;SDS011;6145;50.192;10.064;2023-08-24T15:20:03;3.58;;;3.20;;
12163;SDS011;6145;50.192;10.064;2023-08-24T15:22:32;4.45;;;3.55;;
12163;SDS011;6145;50.192;10.064;2023-08-24T15:31:56;5.03;;;3.50;;
12163;SDS011;6145;50.192;10.064;2023-08-24T15:34:26;3.80;;;3.50;;
12163;SDS011;6145;50.192;10.064;2023-08-24T15:36:55;4.00;;;3.42;;
12163;SDS011;6145;50.192;10.064;2023-08-24T15:39:23;4.53;;;3.40;;
12163;SDS011;6145;50.192;10.064;2023-08-24T15:41:49;4.22;;;3.22;;
12163;SDS011;6145;50.192;10.064;2023-08-24T15:44:22;4.10;;;3.40;;
12163;SDS011;6145;50.192;10.064;2023-08-24T15:46:50;5.28;;;3.80;;
12163;SDS011;6145;50.192;10.064;2023-08-24T15:49:18;4.75;;;3.72;;
12163;SDS011;6145;50.192;10.064;2023-08-24T15:52:09;7.40;;;4.05;;
12163;SDS011;6145;50.192;10.064;2023-08-24T15:54:36;6.28;;;4.38;;
12163;SDS011;6145;50.192;10.064;2023-08-24T15:57:04;5.13;;;3.75;;
12163;SDS011;6145;50.192;10.064;2023-08-24T15:59:40;8.15;;;4.10;;
12163;SDS011;6145;50.192;10.064;2023-08-24T16:02:31;6.05;;;4.82;;
12163;SDS011;6145;50.192;10.064;2023-08-24T16:05:19;4.57;;;4.13;;
12163;SDS011;6145;50.192;10.064;2023-08-24T16:07:46;4.15;;;3.75;;
12163;SDS011;6145;50.192;10.064;2023-08-24T16:10:30;4.55;;;4.15;;
12163;SDS011;6145;50.192;10.064;2023-08-24T16:12:57;6.15;;;4.00;;
12163;SDS011;6145;50.192;10.064;2023-08-24T16:15:24;4.88;;;4.05;;
12163;SDS011;6145;50.192;10.064;2023-08-24T16:18:05;4.38;;;3.92;;
12163;SDS011;6145;50.192;10.064;2023-08-24T16:20:35;4.45;;;3.88;;
12163;SDS011;6145;50.192;10.064;2023-08-24T16:23:05;4.28;;;3.85;;
12163;SDS011;6145;50.192;10.064;2023-08-24T16:25:33;5.57;;;4.10;;
12163;SDS011;6145;50.192;10.064;2023-08-24T16:28:00;6.30;;;4.20;;
12163;SDS011;6145;50.192;10.064;2023-08-24T16:33:59;4.55;;;3.75;;
12163;SDS011;6145;50.192;10.064;2023-08-24T16:42:39;5.93;;;3.90;;
12163;SDS011;6145;50.192;10.064;2023-08-24T16:45:06;5.75;;;4.03;;
12163;SDS011;6145;50.192;10.064;2023-08-24T16:47:34;7.03;;;4.40;;
12163;SDS011;6145;50.192;10.064;2023-08-24T17:29:35;4.60;;;3.60;;
12163;SDS011;6145;50.192;10.064;2023-08-24T17:32:02;7.35;;;4.07;;
12163;SDS011;6145;50.192;10.064;2023-08-24T17:44:49;4.55;;;4.00;;
12163;SDS011;6145;50.192;10.064;2023-08-24T17:47:16;4.72;;;4.18;;
12163;SDS011;6145;50.192;10.064;2023-08-24T17:49:43;4.30;;;3.50;;
12163;SDS011;6145;50.192;10.064;2023-08-24T17:55:50;6.25;;;3.70;;
12163;SDS011;6145;50.192;10.064;2023-08-24T17:58:18;5.28;;;3.40;;
12163;SDS011;6145;50.192;10.064;2023-08-24T18:00:46;5.07;;;3.75;;
12163;SDS011;6145;50.192;10.064;2023-08-24T18:03:13;4.65;;;3.47;;
12163;SDS011;6145;50.192;10.064;2023-08-24T18:05:47;3.85;;;3.53;;
12163;SDS011;6145;50.192;10.064;2023-08-24T18:08:14;6.32;;;4.18;;
12163;SDS011;6145;50.192;10.064;2023-08-24T18:10:41;5.25;;;3.85;;
12163;SDS011;6145;50.192;10.064;2023-08-24T18:13:09;5.47;;;4.43;;
12163;SDS011;6145;50.192;10.064;2023-08-24T18:15:36;6.43;;;4.38;;
12163;SDS011;6145;50.192;10.064;2023-08-24T18:18:05;7.45;;;4.65;;
12163;SDS011;6145;50.192;10.064;2023-08-24T18:20:33;5.07;;;4.03;;
12163;SDS011;6145;50.192;10.064;2023-08-24T18:23:00;5.55;;;4.30;;
12163;SDS011;6145;50.192;10.064;2023-08-24T18:32:52;5.35;;;4.05;;
12163;SDS011;6145;50.192;10.064;2023-08-24T18:35:20;5.85;;;4.60;;
12163;SDS011;6145;50.192;10.064;2023-08-24T18:37:47;4.50;;;4.10;;
12163;SDS011;6145;50.192;10.064;2023-08-24T18:40:14;4.55;;;3.85;;
12163;SDS011;6145;50.192;10.064;2023-08-24T18:42:40;4.68;;;3.88;;
12163;SDS011;6145;50.192;10.064;2023-08-24T18:45:10;5.88;;;4.03;;
12163;SDS011;6145;50.192;10.064;2023-08-24T18:47:38;5.15;;;3.85;;
12163;SDS011;6145;50.192;10.064;2023-08-24T18:50:06;5.05;;;4.15;;
12163;SDS011;6145;50.192;10.064;2023-08-24T18:52:34;4.75;;;4.00;;
12163;SDS011;6145;50.192;10.064;2023-08-24T18:55:06;5.20;;;4.20;;
12163;SDS011;6145;50.192;10.064;2023-08-24T18:57:35;5.50;;;4.45;;
12163;SDS011;6145;50.192;10.064;2023-08-24T19:00:33;6.97;;;4.93;;
